Flight Track Log - Related Links

Times and Time Zones

All times are in EDT time to prevent confusion due to time zone crossing. See the UAL395 flight status page for this flight to view local times or setup timezone preferences in your user account.

Time Position Orientation Groundspeed Altitude Reporting Facility
EDT Latitude Longitude Course Direction KTS MPH feet Rate Location/Type
Thu 03:52:58 PM 40.7167 -74.1500 210° Southwest 163 188 1,500  Level New York TRACON
Thu 03:53:58 PM 40.7667 -74.1000 37° Northeast 220 253 3,700 2,400 Climbing New York TRACON
Thu 03:54:58 PM 40.7833 -74.1833 285° West 293 337 6,300 2,750 Climbing New York TRACON
Thu 03:55:00 PM 40.3575 -74.3338 180° South  Level Estimated
Thu 03:55:58 PM 40.7167 -74.2167 201° Southwest 281 323 9,200  Level New York TRACON
Thu 03:56:00 PM 40.2458 -74.3885 180° South  Level Estimated
Thu 03:56:58 PM 40.6500 -74.2500 201° Southwest 290 334 12,100  Level New York TRACON
Thu 03:57:00 PM 40.1340 -74.4430 224° Southwest  Level Estimated
Thu 03:57:58 PM 40.5667 -74.2167 163° South 304 350 14,700  Level New York TRACON
Thu 03:58:00 PM 40.0223 -74.4973 210° Southwest  Level Estimated
Thu 04:00:15 PM 40.4175 -74.0694 143° Southeast 318 366 17,000  Level New York Center
Thu 04:01:15 PM 40.3244 -74.0514 172° South 313 360 17,000  Level New York Center
Thu 04:02:15 PM 40.2542 -74.0969 206° Southwest 313 360 17,000 646 Level New York Center
Thu 04:03:53 PM 40.1514 -74.2156 221° Southwest 303 349 18,700 1,462 Climbing Washington Center
Thu 04:04:51 PM 40.1403 -74.3350 263° West 303 349 20,800 1,881 Climbing Washington Center
Thu 04:05:51 PM 40.1164 -74.4547 255° West 324 373 22,400 1,537 Climbing Washington Center
Thu 04:06:52 PM 40.0250 -74.4889 196° South 300 345 23,900 744 Climbing Washington Center
Thu 04:07:52 PM 39.9294 -74.5067 188° South 305 351 23,900  Level Washington Center
Thu 04:08:53 PM 39.8317 -74.5217 187° South 332 382 23,900  Level Washington Center
Thu 04:09:53 PM 39.7383 -74.5608 198° South 345 397 23,900 203 Level Washington Center
Thu 04:10:51 PM 39.6558 -74.6617 223° Southwest 373 429 24,300 407 Climbing Washington Center
Thu 04:11:51 PM 39.5794 -74.7569 224° Southwest 398 458 24,700 793 Climbing Washington Center
Thu 04:12:52 PM 39.4906 -74.8708 225° Southwest 431 496 25,900 1,041 Climbing Washington Center
Thu 04:13:52 PM 39.3994 -74.9872 225° Southwest 446 513 26,800 942 Climbing Washington Center
Thu 04:14:53 PM 39.3061 -75.0981 223° Southwest 459 528 27,800 1,160 Climbing Washington Center
Thu 04:15:51 PM 39.1897 -75.1686 205° Southwest 459 528 29,100 1,412 Climbing Washington Center
Thu 04:16:52 PM 39.0753 -75.2386 205° Southwest 459 528 30,600 1,377 Climbing Washington Center
Thu 04:17:53 PM 38.9631 -75.3058 205° Southwest 454 522 31,900 1,210 Climbing Washington Center
Thu 04:18:51 PM 38.8506 -75.3731 205° Southwest 449 517 33,000 1,109 Climbing Washington Center
Thu 04:19:52 PM 38.7400 -75.4372 204° Southwest 444 511 34,100 1,041 Climbing Washington Center
Thu 04:20:52 PM 38.6317 -75.5067 207° Southwest 444 511 35,100 893 Climbing Washington Center
Thu 04:21:53 PM 38.5150 -75.5439 194° South 438 504 35,900 403 Climbing Washington Center
Thu 04:22:51 PM 38.3983 -75.5678 189° South 425 489 35,900 50 Level Washington Center
Thu 04:23:52 PM 38.2650 -75.5917 188° South 430 495 36,000 49 Climbing Washington Center
Thu 04:24:53 PM 38.1481 -75.6128 188° South 430 495 36,000 -50 Level Washington Center
Thu 04:25:51 PM 38.0314 -75.6419 191° South 430 495 35,900  Descending Washington Center
Thu 04:26:51 PM 37.9167 -75.6917 199° South 430 495 36,000 50 Climbing Washington Center
Thu 04:27:52 PM 37.8103 -75.7600 207° Southwest 436 502 36,000 -49 Level Washington Center
Thu 04:28:54 PM 37.7017 -75.8281 206° Southwest 436 502 35,900 -50 Descending Washington Center
Thu 04:29:51 PM 37.5972 -75.8986 208° Southwest 441 507 35,900 51 Level Washington Center
Thu 04:30:52 PM 37.4864 -75.9661 206° Southwest 441 507 36,000 49 Climbing Washington Center
Thu 04:31:53 PM 37.3797 -76.0361 208° Southwest 436 502 36,000  Level Washington Center
Thu 04:32:53 PM 37.2731 -76.1033 207° Southwest 431 496 36,000  Level Washington Center
Thu 04:33:53 PM 37.1603 -76.1653 204° Southwest 431 496 36,000  Level Washington Center
Thu 04:34:51 PM 37.0494 -76.2347 207° Southwest 436 502 36,000  Level Washington Center
Thu 04:35:51 PM 36.9406 -76.3039 207° Southwest 436 502 36,000  Level Washington Center
Thu 04:36:53 PM 36.8294 -76.3731 206° Southwest 436 502 36,000 49 Level Washington Center
Thu 04:37:53 PM 36.7225 -76.4419 195° South 436 502 36,100 -51 Climbing Washington Center
Thu 04:38:00 PM 36.7156 -76.4115 195° South  Level FlightAware Approximate
Thu 04:38:51 PM 36.6075 -76.4769 194° South 436 502 35,900  Level Washington Center
Thu 04:39:51 PM 36.4886 -76.4961 187° South 432 497 35,900  Level Washington Center
Thu 04:40:51 PM 36.3675 -76.5156 187° South 437 503 35,900  Level Washington Center
Thu 04:41:52 PM 36.2461 -76.5397 189° South 437 503 35,900 25 Level Washington Center
Thu 04:43:00 PM 36.1325 -76.5870 199° South  Level FlightAware Approximate
Thu 04:44:52 PM 35.8967 -76.6586 202° Southwest 442 509 36,000  Level Washington Center
Thu 04:45:53 PM 35.7836 -76.7136 202° Southwest 442 509 35,900 -50 Descending Washington Center
Thu 04:46:51 PM 35.6806 -76.7939 212° Southwest 437 503 35,900 50 Level Washington Center
Thu 04:47:52 PM 35.5858 -76.8767 215° Southwest 437 503 36,000 50 Climbing Washington Center
Thu 04:48:52 PM 35.4828 -76.9592 213° Southwest 437 503 36,000  Level Washington Center
Thu 04:49:53 PM 35.3817 -77.0417 214° Southwest 443 510 36,000  Level Washington Center
Thu 04:50:00 PM 35.4387 -76.9069 202° Southwest  Level FlightAware Approximate
Thu 04:50:51 PM 35.2803 -77.1239 214° Southwest 443 510 36,000  Level Washington Center
Thu 04:51:52 PM 35.1792 -77.2083 214° Southwest 449 517 36,000  Level Washington Center
Thu 04:52:53 PM 35.0756 -77.2925 214° Southwest 449 517 36,000  Level Washington Center
Thu 04:53:51 PM 34.9722 -77.3739 213° Southwest 449 517 36,000  Level Washington Center
Thu 04:54:51 PM 34.8708 -77.4553 213° Southwest 449 517 36,000  Level Washington Center
Thu 04:55:52 PM 34.7714 -77.5414 215° Southwest 449 517 36,000  Level Washington Center
Thu 04:56:53 PM 34.6700 -77.6250 214° Southwest 449 517 36,000 -50 Level Washington Center
Thu 04:57:51 PM 34.5664 -77.7056 213° Southwest 449 517 35,900  Descending Washington Center
Thu 04:58:52 PM 34.4625 -77.7886 213° Southwest 449 517 36,000 49 Climbing Washington Center
Thu 04:59:53 PM 34.3569 -77.8636 210° Southwest 449 517 36,000  Level Washington Center
Thu 05:00:51 PM 34.2475 -77.9058 198° South 449 517 36,000  Level Washington Center
Thu 05:03:03 PM 33.9808 -77.9817 193° South 458 527 36,000  Level Jacksonville Center
Thu 05:04:03 PM 33.8592 -78.0186 194° South 458 527 36,000  Level Jacksonville Center
Thu 05:05:03 PM 33.7375 -78.0553 194° South 453 521 36,000  Level Jacksonville Center
Thu 05:06:03 PM 33.6156 -78.0894 193° South 447 514 36,000  Level Jacksonville Center
Thu 05:07:03 PM 33.4958 -78.1208 192° South 447 514 36,000 -50 Level Jacksonville Center
Thu 05:08:03 PM 33.3761 -78.1544 193° South 447 514 35,900 -50 Descending Jacksonville Center
Thu 05:09:03 PM 33.2564 -78.1881 193° South 447 514 35,900  Level Jacksonville Center
Thu 05:10:03 PM 33.1364 -78.2217 193° South 447 514 35,900 50 Level Jacksonville Center
Thu 05:11:03 PM 33.0189 -78.2575 194° South 447 514 36,000  Climbing Jacksonville Center
Thu 05:12:03 PM 32.8969 -78.2911 193° South 447 514 35,900  Descending Jacksonville Center
Thu 05:13:03 PM 32.7772 -78.3244 193° South 447 514 36,000 50 Climbing Jacksonville Center
Thu 05:14:03 PM 32.6572 -78.3553 192° South 447 514 36,000  Level Jacksonville Center
Thu 05:15:03 PM 32.5394 -78.3906 194° South 447 514 36,000  Level Jacksonville Center
Thu 05:16:03 PM 32.4194 -78.4211 192° South 447 514 36,000 -50 Level Jacksonville Center
Thu 05:17:03 PM 32.3019 -78.4589 195° South 447 514 35,900 -50 Descending Jacksonville Center
Thu 05:18:03 PM 32.1842 -78.4939 194° South 447 514 35,900 50 Level Jacksonville Center
Thu 05:19:03 PM 32.0622 -78.5317 195° South 442 509 36,000  Climbing Jacksonville Center
Thu 05:20:03 PM 31.9444 -78.5667 194° South 447 514 35,900 -50 Descending Jacksonville Center
Thu 05:21:03 PM 31.8264 -78.5967 192° South 447 514 35,900 50 Level Jacksonville Center
Thu 05:22:03 PM 31.7067 -78.6317 194° South 447 514 36,000 50 Climbing Jacksonville Center
Thu 05:23:03 PM 31.5867 -78.6686 195° South 447 514 36,000 -50 Level Jacksonville Center
Thu 05:24:03 PM 31.4669 -78.7033 194° South 447 514 35,900  Descending Jacksonville Center
Thu 05:25:03 PM 31.3489 -78.7356 193° South 447 514 36,000 50 Climbing Jacksonville Center
Thu 05:26:03 PM 31.2289 -78.7675 193° South 447 514 36,000  Level Jacksonville Center
Thu 05:27:03 PM 31.0986 -78.8072 195° South 436 502 36,000 -50 Level Jacksonville Center
Thu 05:28:03 PM 30.9786 -78.8414 194° South 436 502 35,900 -50 Descending Jacksonville Center
Thu 05:29:03 PM 30.8608 -78.8756 194° South 448 516 35,900  Level Jacksonville Center
Thu 05:30:03 PM 30.7428 -78.9094 194° South 444 511 35,900 40 Level Jacksonville Center
Thu 05:31:32 PM 30.5589 -78.9581 193° South 462 532 36,000 40 Climbing Miami Center
Thu 05:32:32 PM 30.4417 -78.9917 194° South 456 525 36,000 -50 Level Miami Center
Thu 05:33:32 PM 30.3244 -79.0231 193° South 449 517 35,900 -50 Descending Miami Center
Thu 05:34:32 PM 30.1989 -79.0542 192° South 449 517 35,900 50 Level Miami Center
Thu 05:35:32 PM 30.0775 -79.0853 193° South 449 517 36,000 50 Climbing Miami Center
Thu 05:36:32 PM 29.9683 -79.1261 198° South 449 517 36,000  Level Miami Center
Thu 05:37:32 PM 29.8428 -79.1519 190° South 444 511 36,000  Level Miami Center
Thu 05:38:32 PM 29.7236 -79.1831 193° South 444 511 36,000  Level Miami Center
Thu 05:39:32 PM 29.6042 -79.2161 194° South 444 511 36,000  Level Miami Center
Thu 05:40:32 PM 29.4764 -79.2397 189° South 454 522 36,000  Level Miami Center
Thu 05:41:32 PM 29.3592 -79.2706 193° South 449 517 36,000  Level Miami Center
Thu 05:42:32 PM 29.2397 -79.3011 193° South 449 517 36,000  Level Miami Center
Thu 05:43:32 PM 29.1244 -79.3319 193° South 443 510 36,000  Level Miami Center
Thu 05:44:32 PM 29.0008 -79.3600 191° South 443 510 36,000  Level Miami Center
Thu 05:45:32 PM 28.8814 -79.3928 194° South 443 510 36,000  Level Miami Center
Thu 05:46:32 PM 28.7639 -79.4233 193° South 448 516 36,000  Level Miami Center
Thu 05:47:32 PM 28.6572 -79.4492 192° South 448 516 36,000  Level Miami Center
Thu 05:48:32 PM 28.5356 -79.4769 191° South 448 516 36,000  Level Miami Center
Thu 05:49:32 PM 28.4139 -79.5072 192° South 448 516 36,000  Level Miami Center
Thu 05:50:32 PM 28.2944 -79.5375 193° South 448 516 36,000  Level Miami Center
Thu 05:51:32 PM 28.1728 -79.5675 192° South 448 516 36,000  Level Miami Center
Thu 05:52:32 PM 28.0511 -79.5953 191° South 448 516 36,000  Level Miami Center
Thu 05:53:32 PM 27.9317 -79.6231 192° South 448 516 36,000 -300 Level Miami Center
Thu 05:54:32 PM 27.8100 -79.6553 193° South 448 516 35,400 -1,000 Descending Miami Center
Thu 05:55:32 PM 27.6903 -79.6850 192° South 448 516 34,000 -1,700 Descending Miami Center
Thu 05:56:32 PM 27.5506 -79.6864 181° South 453 521 32,000 -2,700 Descending Miami Center
Thu 05:57:32 PM 27.4211 -79.6786 177° South 459 528 28,600 -3,750 Descending Miami Center
Thu 05:58:32 PM 27.2897 -79.6706 177° South 464 534 24,500 -3,500 Descending Miami Center
Thu 05:59:32 PM 27.1750 -79.6608 176° South 464 534 21,600 -2,550 Descending Miami Center
Thu 06:00:32 PM 27.0522 -79.6508 176° South 459 528 19,400 -2,500 Descending Miami Center
Thu 06:01:32 PM 26.9228 -79.6408 176° South 428 493 16,600 -1,900 Descending Miami Center
Thu 06:02:32 PM 26.8181 -79.6522 186° South 399 459 15,600 -1,750 Descending Miami Center
Thu 06:03:32 PM 26.7275 -79.6944 203° Southwest 366 421 13,100 -2,350 Descending Miami Center
Thu 06:04:32 PM 26.6433 -79.7342 203° Southwest 349 402 10,900 -2,182 Descending Miami Center
Thu 06:04:38 PM 26.6306 -79.7431 212° Southwest 322 371 10,700 -1,714 Descending Miami Center
Thu 06:05:21 PM 26.5800 -79.7675 203° Southwest 296 341 9,500 -1,889 Descending Miami Center
Thu 06:05:32 PM 26.5672 -79.7717 196° South 316 364 9,000 -1,343 Descending Miami Center
Thu 06:06:28 PM 26.5019 -79.8050 205° Southwest 280 322 8,000 -1,000 Descending Miami Center
Thu 06:06:32 PM 26.4956 -79.8047 178° South 291 335 8,000  Level Miami Center
Thu 06:07:24 PM 26.4322 -79.8356 204° Southwest 287 330 8,000  Level Miami Center
Thu 06:07:32 PM 26.4281 -79.8381 208° Southwest 291 335 8,000  Level Miami Center
Thu 06:08:32 PM 26.3539 -79.8869 211° Southwest 291 335 8,000  Level Miami Center
Thu 06:09:32 PM 26.3008 -79.9367 220° Southwest 291 335 8,000 -50 Level Miami Center
Thu 06:10:32 PM 26.2367 -79.9997 221° Southwest 284 327 7,900  Descending Miami Center
Thu 06:10:33 PM 26.2344 -80.0022 225° Southwest 284 327 8,000  Climbing Miami Center
Thu 06:11:32 PM 26.1789 -80.0631 225° Southwest 289 333 7,900 -98 Descending Miami Center
Thu 06:11:34 PM 26.1747 -80.0700 236° Southwest 288 331 7,900 -1,300 Level Miami Center
Thu 06:12:32 PM 26.1519 -80.1433 251° West 276 318 6,600 -1,377 Descending Miami Center
Thu 06:12:35 PM 26.1497 -80.1503 250° West 280 322 6,500 -517 Descending Miami Center
Thu 06:13:30 PM 26.1481 -80.2242 269° West 239 275 6,100 -526 Descending Miami Center
Thu 06:13:32 PM 26.1503 -80.2244 354° North 268 308 6,000 -1,161 Descending Miami Center
Thu 06:14:32 PM 26.1486 -80.2936 268° West 255 293 4,900 -1,100 Descending Miami Center
Thu 06:14:32 PM 26.1486 -80.2936 268° West 225 259 4,900 -984 Level Miami Center
Thu 06:15:33 PM 26.1161 -80.3483 237° Southwest 230 265 3,900 -1,219 Descending Miami Center
Thu 06:16:40 PM 26.0753 -80.3056 137° Southeast 182 209 2,300 -1,125 Descending Miami Center
Thu 06:17:41 PM 26.0742 -80.2569 91° East 145 167 1,500 -738 Descending Miami Center
Thu 06:18:42 PM 26.0753 -80.2153 88° East 135 155 800 -689 Descending Miami Center
Thu 06:20:00 PM 26.0667 -80.1500 103° East  Level FlightAware Approximate
Thu 06:27:00 PM 26.0726 -80.1527 103° East  Level Estimated

Login

Don't have an account? Register now (free) for customized features, flight alerts, and more!